Terminal Aerodrome Forecast
Issued by NWS Dallas/Fort Worth, TX

Home | Current Version | Previous Version | Text Only | Print | Product List | Glossary On
Versions: 1 2 3 4 5 6 7 8 9 10 11 12 13 14 15 16 17 18 19 20 21 22 23 24 25 26 27 28 29
192
FTUS44 KFWD 271135
TAFDFW
TAF
KDFW 271135Z 2712/2818 14005KT P6SM OVC008
     FM271700 17016KT P6SM VCTS BKN015CB
     FM272000 19016KT P6SM SCT020 BKN050
     FM272200 18015KT P6SM SCT050
     FM280500 18014KT P6SM OVC012=

USA.gov is the U.S. government's official web portal to all federal, state and local government web resources and services.